Time;durP1;ratioP1;P1;durP2;ratioP2;P2;SDS_P1;SDS_P2;PMS_P1;PMS_P2;Temp;Humidity;BMP_temperature;BMP_pressure;BME280_temperature;BME280_humidity;BME280_pressure;Samples;Min_cycle;Max_cycle;Signal;HPM_P1;HPM_P2
2022/10/22 00:00:24;;;;;;;6.20;4.53;;;;;;;14.39;98.22;99719.50;5009349;28;20455;-77
2022/10/22 00:02:50;;;;;;;6.30;4.47;;;;;;;14.29;98.08;99718.91;5011891;28;20515;-77
2022/10/22 00:05:17;;;;;;;10.90;5.33;;;;;;;14.33;98.71;99722.88;5001440;28;20714;-77
2022/10/22 00:07:45;;;;;;;5.33;4.80;;;;;;;14.34;98.75;99726.41;5002872;28;21301;-77
2022/10/22 00:10:11;;;;;;;4.97;4.40;;;;;;;14.21;98.61;99729.69;5005792;28;20494;-77
2022/10/22 00:12:38;;;;;;;5.97;5.13;;;;;;;14.16;98.89;99724.84;5002340;28;20472;-77
2022/10/22 00:15:06;;;;;;;6.77;4.63;;;;;;;14.24;98.65;99734.72;5003409;28;20904;-76
2022/10/22 00:17:32;;;;;;;8.20;4.03;;;;;;;14.20;99.05;99731.56;5003596;28;20480;-77
2022/10/22 00:19:59;;;;;;;7.10;5.00;;;;;;;14.02;98.86;99734.47;5003847;28;21000;-78
2022/10/22 00:22:26;;;;;;;6.40;4.70;;;;;;;14.00;99.52;99739.19;5021304;28;20483;-78
2022/10/22 00:24:54;;;;;;;6.00;4.60;;;;;;;14.07;99.44;99733.97;5009719;28;20495;-78
2022/10/22 00:27:20;;;;;;;10.53;5.13;;;;;;;14.05;99.78;99720.69;5004035;28;20539;-79
2022/10/22 00:29:47;;;;;;;6.30;5.40;;;;;;;14.01;99.51;99730.13;5003515;28;20494;-79
2022/10/22 00:32:14;;;;;;;8.03;5.53;;;;;;;14.17;99.47;99742.66;5020477;28;20561;-79
2022/10/22 00:34:40;;;;;;;6.63;5.50;;;;;;;14.13;99.51;99735.97;5025009;28;20455;-79
2022/10/22 00:37:07;;;;;;;7.97;6.07;;;;;;;14.26;99.25;99740.75;5018815;28;20504;-79
2022/10/22 00:39:34;;;;;;;5.93;4.83;;;;;;;14.31;98.46;99746.44;5005629;28;20432;-79
2022/10/22 00:42:02;;;;;;;5.53;4.90;;;;;;;14.37;98.16;99755.63;5017567;28;20545;-79
2022/10/22 00:45:06;;;;;;;5.63;5.07;;;;;;;14.32;98.12;99762.41;5008966;28;20491;-79
2022/10/22 00:47:34;;;;;;;6.40;4.70;;;;;;;14.22;97.97;99763.63;5022014;28;20483;-77
2022/10/22 00:50:01;;;;;;;6.17;4.83;;;;;;;14.23;98.04;99755.38;5024488;28;20497;-77
2022/10/22 00:52:29;;;;;;;6.57;4.10;;;;;;;14.25;97.92;99763.25;5014119;28;20503;-76
2022/10/22 00:55:03;;;;;;;5.33;4.60;;;;;;;14.13;97.84;99765.53;5017497;28;20530;-77
2022/10/22 00:57:31;;;;;;;8.67;4.90;;;;;;;14.09;98.26;99764.19;5024674;28;20537;-77
2022/10/22 00:59:58;;;;;;;5.60;4.27;;;;;;;14.00;98.66;99762.56;5011204;28;20499;-77
2022/10/22 01:02:25;;;;;;;8.57;4.73;;;;;;;14.05;98.74;99773.63;5004641;28;20507;-76
2022/10/22 01:04:51;;;;;;;7.37;5.03;;;;;;;14.01;98.94;99765.09;5005157;28;20482;-76
2022/10/22 01:07:20;;;;;;;6.63;5.90;;;;;;;13.97;98.77;99768.28;5016323;28;20502;-76
2022/10/22 01:09:53;;;;;;;6.80;4.80;;;;;;;13.93;98.99;99762.41;5024373;28;20467;-77
2022/10/22 01:12:24;;;;;;;5.37;4.30;;;;;;;14.11;99.28;99760.34;5015888;28;20506;-77
2022/10/22 01:15:05;;;;;;;7.77;4.80;;;;;;;14.06;99.01;99754.66;5005006;28;20456;-76
2022/10/22 01:17:36;;;;;;;6.10;3.97;;;;;;;14.14;98.71;99756.44;4985123;28;20465;-77
2022/10/22 01:20:12;;;;;;;4.03;3.53;;;;;;;14.17;99.31;99763.34;4991981;28;20962;-77
2022/10/22 01:22:41;;;;;;;4.93;3.90;;;;;;;14.25;98.53;99748.00;4989277;28;20484;-77
2022/10/22 01:25:09;;;;;;;6.00;4.47;;;;;;;14.23;98.52;99750.00;4996900;28;20531;-77
2022/10/22 01:27:45;;;;;;;6.00;4.00;;;;;;;14.32;97.98;99757.03;5005322;28;20519;-77
2022/10/22 01:30:14;;;;;;;7.00;3.93;;;;;;;14.39;97.64;99748.22;5003358;28;20992;-77
2022/10/22 01:32:46;;;;;;;6.10;4.10;;;;;;;14.42;97.28;99750.56;5008549;28;20444;-77
2022/10/22 01:35:15;;;;;;;8.00;3.63;;;;;;;14.40;97.06;99758.81;5023579;28;20862;-78
2022/10/22 01:37:44;;;;;;;20.83;4.23;;;;;;;14.43;96.82;99754.94;5020292;28;20478;-78
2022/10/22 01:40:12;;;;;;;5.00;4.03;;;;;;;14.44;96.86;99753.91;5003335;28;20436;-78
2022/10/22 01:42:38;;;;;;;6.00;3.97;;;;;;;14.49;96.76;99755.06;5015587;28;20481;-78
2022/10/22 01:45:11;;;;;;;4.73;4.10;;;;;;;14.63;95.91;99748.13;5008497;28;20985;-78
2022/10/22 01:47:48;;;;;;;11.20;4.13;;;;;;;14.59;95.68;99749.47;5014408;28;20483;-78
2022/10/22 01:50:28;;;;;;;6.30;3.90;;;;;;;14.58;95.61;99753.19;5022965;28;20474;-78
2022/10/22 01:53:06;;;;;;;6.93;3.93;;;;;;;14.60;95.93;99744.91;5022168;28;20485;-78
2022/10/22 01:55:38;;;;;;;7.27;4.23;;;;;;;14.61;95.46;99743.91;5022961;28;20522;-78
2022/10/22 01:58:13;;;;;;;4.00;3.37;;;;;;;14.60;95.44;99736.84;5011797;28;20479;-78
2022/10/22 02:00:48;;;;;;;7.23;3.57;;;;;;;14.49;95.47;99743.47;5022983;28;21058;-78
2022/10/22 02:03:19;;;;;;;6.77;3.27;;;;;;;14.46;95.52;99739.28;5021711;28;20581;-78
2022/10/22 02:05:49;;;;;;;3.40;3.10;;;;;;;14.39;95.62;99745.53;5023127;28;20502;-75
2022/10/22 02:08:19;;;;;;;5.17;3.70;;;;;;;14.39;96.31;99746.41;5021877;28;20539;-76
2022/10/22 02:10:47;;;;;;;5.77;3.90;;;;;;;14.22;96.27;99737.59;5022694;28;20502;-77
2022/10/22 02:13:16;;;;;;;4.47;3.70;;;;;;;14.08;96.53;99736.47;5008954;28;20479;-76
2022/10/22 02:15:45;;;;;;;7.53;4.27;;;;;;;13.99;96.98;99742.06;5016612;28;20558;-76
2022/10/22 02:18:12;;;;;;;7.37;4.47;;;;;;;13.86;97.36;99742.63;5020909;28;20475;-76
2022/10/22 02:20:41;;;;;;;11.43;4.60;;;;;;;13.59;97.37;99733.97;5022684;28;20544;-76
2022/10/22 02:23:08;;;;;;;4.13;3.70;;;;;;;13.28;97.10;99728.50;5021474;28;20804;-75
2022/10/22 02:25:36;;;;;;;8.73;3.93;;;;;;;13.10;97.12;99718.78;5021787;28;20494;-75
2022/10/22 02:28:10;;;;;;;6.00;4.27;;;;;;;12.94;97.13;99714.28;5022741;28;20526;-76
2022/10/22 02:30:38;;;;;;;6.30;4.80;;;;;;;12.85;97.36;99717.16;5022657;28;20538;-75
2022/10/22 02:33:09;;;;;;;8.10;4.50;;;;;;;12.75;97.86;99717.34;5010795;28;20471;-75
2022/10/22 02:35:36;;;;;;;5.90;4.80;;;;;;;12.57;99.48;99714.81;5002568;28;20843;-75
2022/10/22 02:38:04;;;;;;;6.03;4.80;;;;;;;12.61;99.11;99727.72;5016363;28;20495;-76
2022/10/22 02:40:31;;;;;;;8.70;4.80;;;;;;;12.56;99.61;99731.91;5022022;28;20707;-76
2022/10/22 02:42:57;;;;;;;6.83;5.13;;;;;;;12.64;99.86;99726.56;5010888;28;20565;-75
2022/10/22 02:45:24;;;;;;;6.30;5.47;;;;;;;12.68;99.85;99732.41;5002550;28;20483;-75
2022/10/22 02:47:51;;;;;;;8.07;6.50;;;;;;;12.58;99.85;99735.25;5003827;28;20846;-75
2022/10/22 02:50:18;;;;;;;7.90;6.90;;;;;;;12.58;100.00;99724.53;5013461;28;20471;-76
2022/10/22 02:52:45;;;;;;;10.10;5.97;;;;;;;12.52;100.00;99728.72;5022530;28;20475;-75
2022/10/22 02:55:12;;;;;;;11.47;6.70;;;;;;;12.52;100.00;99725.22;5021454;28;20998;-75
2022/10/22 02:57:39;;;;;;;9.10;6.10;;;;;;;12.39;100.00;99729.22;5012401;28;20498;-75
2022/10/22 03:00:07;;;;;;;8.00;6.60;;;;;;;12.38;100.00;99746.28;5003060;28;20524;-75
2022/10/22 03:02:34;;;;;;;8.90;7.53;;;;;;;12.34;100.00;99738.72;5003803;28;20530;-76
2022/10/22 03:05:00;;;;;;;9.70;6.73;;;;;;;12.27;100.00;99743.06;5002577;28;20494;-75
2022/10/22 03:07:27;;;;;;;10.10;7.50;;;;;;;12.34;100.00;99755.69;5003261;28;20558;-75
2022/10/22 03:09:54;;;;;;;10.33;7.97;;;;;;;12.31;100.00;99750.63;5002650;28;20678;-74
2022/10/22 03:12:22;;;;;;;11.47;9.13;;;;;;;12.39;100.00;99742.63;5007873;28;20534;-75
2022/10/22 03:14:48;;;;;;;8.93;8.03;;;;;;;12.37;100.00;99749.13;5022707;28;20482;-74
2022/10/22 03:17:15;;;;;;;8.33;7.50;;;;;;;12.38;100.00;99751.66;5020657;28;20555;-75
2022/10/22 03:19:41;;;;;;;9.07;7.33;;;;;;;12.40;100.00;99751.50;5022012;28;20808;-75
2022/10/22 03:22:11;;;;;;;8.07;7.23;;;;;;;12.51;100.00;99771.78;5020058;28;20850;-75
2022/10/22 03:24:40;;;;;;;9.57;8.60;;;;;;;12.45;100.00;99762.56;5021606;28;20526;-76
2022/10/22 03:27:06;;;;;;;9.90;8.90;;;;;;;12.42;100.00;99760.19;5015782;28;20555;-75
2022/10/22 03:29:37;;;;;;;10.77;7.70;;;;;;;12.33;100.00;99762.03;5002517;28;20491;-76
2022/10/22 03:32:03;;;;;;;8.77;7.50;;;;;;;12.22;100.00;99775.72;5006465;28;20557;-75
2022/10/22 03:34:30;;;;;;;10.40;7.60;;;;;;;12.17;100.00;99775.38;5022324;28;20459;-75
2022/10/22 03:36:57;;;;;;;9.53;7.80;;;;;;;12.12;100.00;99777.72;5015661;28;20510;-75
2022/10/22 03:39:24;;;;;;;12.60;8.10;;;;;;;12.09;100.00;99776.19;5002686;28;20511;-75
2022/10/22 03:41:51;;;;;;;9.40;8.30;;;;;;;12.16;100.00;99766.50;5006100;28;20490;-75
2022/10/22 03:44:18;;;;;;;15.27;8.90;;;;;;;12.17;100.00;99770.88;5021760;28;20569;-76
2022/10/22 03:46:46;;;;;;;11.23;9.57;;;;;;;12.09;100.00;99776.19;5017334;28;20514;-75
2022/10/22 03:49:12;;;;;;;13.33;8.43;;;;;;;11.90;100.00;99784.47;5021647;28;20530;-75
2022/10/22 03:51:39;;;;;;;12.90;8.07;;;;;;;11.92;100.00;99791.34;5018903;28;20490;-75
2022/10/22 03:54:06;;;;;;;9.60;8.07;;;;;;;11.84;100.00;99783.28;5002196;28;20548;-75
2022/10/22 03:56:33;;;;;;;10.20;7.97;;;;;;;12.02;100.00;99775.16;5001619;28;20510;-76
2022/10/22 03:59:00;;;;;;;9.53;8.53;;;;;;;11.90;100.00;99781.78;5022243;28;20462;-76
2022/10/22 04:01:28;;;;;;;11.47;7.80;;;;;;;11.86;100.00;99789.31;5019982;28;20503;-76
2022/10/22 04:03:56;;;;;;;11.97;7.63;;;;;;;11.92;100.00;99786.00;5002897;28;20524;-76
2022/10/22 04:06:23;;;;;;;9.50;8.07;;;;;;;11.98;100.00;99782.69;5001457;28;20551;-76
2022/10/22 04:08:49;;;;;;;10.67;7.70;;;;;;;11.89;100.00;99789.00;5001762;28;20499;-76
2022/10/22 04:11:17;;;;;;;12.00;8.33;;;;;;;11.89;100.00;99799.69;5001085;28;20551;-75
2022/10/22 04:13:44;;;;;;;11.70;8.53;;;;;;;12.02;100.00;99796.59;5021459;28;20478;-75
2022/10/22 04:16:11;;;;;;;9.27;8.37;;;;;;;12.03;100.00;99798.25;5020660;28;20489;-76
2022/10/22 04:18:39;;;;;;;9.47;7.90;;;;;;;11.99;100.00;99796.91;5002593;28;20476;-75
2022/10/22 04:21:07;;;;;;;13.50;8.50;;;;;;;12.03;100.00;99798.25;5001616;28;20890;-76
2022/10/22 04:23:34;;;;;;;8.60;7.70;;;;;;;12.09;100.00;99799.47;5018431;28;20566;-75
2022/10/22 04:26:01;;;;;;;10.33;8.80;;;;;;;12.09;100.00;99803.00;5020739;28;20481;-75
2022/10/22 04:28:30;;;;;;;9.23;7.80;;;;;;;11.97;100.00;99809.63;5005699;28;20551;-74
2022/10/22 04:30:56;;;;;;;11.27;9.03;;;;;;;11.94;100.00;99809.94;5006896;28;20514;-75
2022/10/22 04:33:23;;;;;;;10.63;9.43;;;;;;;11.91;100.00;99802.22;5007199;28;20479;-75
2022/10/22 04:35:49;;;;;;;13.07;9.90;;;;;;;11.94;100.00;99800.06;5001585;28;20515;-75
2022/10/22 04:38:17;;;;;;;10.40;8.80;;;;;;;11.90;100.00;99796.00;5017798;28;20972;-74
2022/10/22 04:40:44;;;;;;;11.93;10.73;;;;;;;11.88;100.00;99803.38;5020852;28;20562;-75
2022/10/22 04:43:11;;;;;;;13.10;9.50;;;;;;;11.86;100.00;99800.03;5021171;28;20510;-75
2022/10/22 04:45:37;;;;;;;11.23;9.20;;;;;;;11.77;100.00;99803.63;5019874;28;20502;-74
2022/10/22 04:48:04;;;;;;;11.00;9.17;;;;;;;11.77;100.00;99809.00;5009814;28;20527;-75
2022/10/22 04:50:31;;;;;;;9.53;8.53;;;;;;;11.75;100.00;99790.44;5001648;28;20502;-75
2022/10/22 04:52:57;;;;;;;16.10;9.73;;;;;;;11.86;100.00;99789.31;5021480;28;20467;-75
2022/10/22 04:55:25;;;;;;;9.93;8.83;;;;;;;11.80;100.00;99796.13;5008262;28;20490;-75
2022/10/22 04:57:52;;;;;;;13.37;10.77;;;;;;;11.78;100.00;99799.97;5021146;28;20455;-76
2022/10/22 05:00:18;;;;;;;13.47;9.87;;;;;;;11.80;100.00;99800.66;5022947;28;20479;-76
2022/10/22 05:02:49;;;;;;;13.43;10.37;;;;;;;11.87;100.00;99790.97;5024480;28;20549;-75
2022/10/22 05:05:16;;;;;;;20.53;15.33;;;;;;;11.82;100.00;99798.63;5023837;28;20481;-75
2022/10/22 05:07:42;;;;;;;12.53;11.13;;;;;;;11.82;100.00;99804.00;5022964;28;20524;-75
2022/10/22 05:10:09;;;;;;;15.13;13.40;;;;;;;11.75;100.00;99801.16;5022833;28;20660;-76
2022/10/22 05:12:37;;;;;;;14.30;10.10;;;;;;;11.65;100.00;99809.28;5004592;28;20634;-76
2022/10/22 05:15:04;;;;;;;12.00;10.47;;;;;;;11.68;100.00;99800.94;5005064;28;20456;-75
2022/10/22 05:17:31;;;;;;;12.13;10.40;;;;;;;11.71;100.00;99806.97;5003751;28;20535;-75
2022/10/22 05:19:58;;;;;;;11.40;8.80;;;;;;;11.69;100.00;99810.63;5004295;28;20460;-75
2022/10/22 05:22:24;;;;;;;10.93;9.37;;;;;;;11.56;100.00;99806.69;5003763;28;20551;-75
2022/10/22 05:24:51;;;;;;;14.83;10.97;;;;;;;11.48;100.00;99808.31;5021222;28;20494;-75
2022/10/22 05:27:17;;;;;;;11.23;9.70;;;;;;;11.44;100.00;99814.13;5009563;28;20534;-75
2022/10/22 05:29:45;;;;;;;14.30;10.63;;;;;;;11.49;100.00;99817.19;5004611;28;20504;-75
2022/10/22 05:32:12;;;;;;;16.90;11.17;;;;;;;11.54;100.00;99811.38;4984070;28;20480;-77
2022/10/22 05:34:38;;;;;;;14.20;11.50;;;;;;;11.59;100.00;99822.44;4984963;28;20536;-76
2022/10/22 05:37:05;;;;;;;13.53;11.00;;;;;;;11.42;100.00;99818.81;5004492;28;20558;-75
2022/10/22 05:39:35;;;;;;;15.60;10.40;;;;;;;11.42;100.00;99829.53;5004219;28;20499;-76
2022/10/22 05:42:02;;;;;;;12.13;10.43;;;;;;;11.34;100.00;99824.13;5016874;28;20496;-76
2022/10/22 05:44:28;;;;;;;12.03;9.83;;;;;;;11.28;100.00;99836.28;5008564;28;20535;-76
2022/10/22 05:46:56;;;;;;;13.97;9.87;;;;;;;11.21;100.00;99838.72;5003294;28;20523;-76
2022/10/22 05:49:23;;;;;;;15.23;10.77;;;;;;;11.26;100.00;99833.75;5013453;28;20590;-77
2022/10/22 05:51:49;;;;;;;15.90;11.40;;;;;;;11.34;100.00;99842.88;5023131;28;20506;-78
2022/10/22 05:54:18;;;;;;;17.73;13.47;;;;;;;11.37;100.00;99839.84;5017364;28;20502;-78
2022/10/22 05:56:44;;;;;;;14.60;10.60;;;;;;;11.17;100.00;99852.59;5005667;28;20483;-76
2022/10/22 05:59:17;;;;;;;13.10;11.37;;;;;;;11.24;100.00;99851.81;5004355;28;20473;-77
2022/10/22 06:01:44;;;;;;;14.17;11.27;;;;;;;11.19;100.00;99853.28;4988317;28;20527;-78
2022/10/22 06:04:13;;;;;;;12.97;11.67;;;;;;;11.24;100.00;99854.47;5003644;28;20652;-78
2022/10/22 06:06:41;;;;;;;15.10;11.07;;;;;;;11.23;100.00;99852.81;5007947;28;20483;-78
2022/10/22 06:09:13;;;;;;;15.27;10.60;;;;;;;11.19;100.00;99855.94;5021027;28;20487;-79
2022/10/22 06:11:39;;;;;;;13.30;10.00;;;;;;;11.17;100.00;99863.28;5013646;28;20945;-78
2022/10/22 06:14:06;;;;;;;12.77;9.93;;;;;;;11.13;100.00;99865.44;5003613;28;20520;-77
2022/10/22 06:16:33;;;;;;;15.10;10.40;;;;;;;11.13;100.00;99868.13;5005755;28;20484;-78
2022/10/22 06:19:00;;;;;;;12.57;9.20;;;;;;;11.24;100.00;99870.53;5006821;28;20487;-77
2022/10/22 06:21:29;;;;;;;12.93;10.47;;;;;;;11.30;100.00;99869.06;5008753;28;20484;-78
2022/10/22 06:23:56;;;;;;;12.67;10.47;;;;;;;11.27;100.00;99877.44;5001525;28;20598;-77
2022/10/22 06:26:23;;;;;;;12.53;9.00;;;;;;;11.17;100.00;99884.69;5020643;28;20475;-79
2022/10/22 06:28:49;;;;;;;14.73;10.97;;;;;;;11.17;100.00;99880.19;5005715;28;20495;-78
2022/10/22 06:31:16;;;;;;;15.30;11.20;;;;;;;11.15;100.00;99887.53;5006759;28;20484;-78
2022/10/22 06:33:43;;;;;;;12.10;9.13;;;;;;;11.09;100.00;99893.47;5000853;28;20756;-79
2022/10/22 06:36:11;;;;;;;12.23;8.90;;;;;;;11.19;100.00;99877.34;5001243;28;20487;-78
2022/10/22 06:38:39;;;;;;;17.37;12.43;;;;;;;11.20;100.00;99890.59;5004200;28;20460;-78
2022/10/22 06:41:07;;;;;;;11.30;9.37;;;;;;;11.38;100.00;99905.78;5002378;28;20526;-78
2022/10/22 06:43:34;;;;;;;12.73;10.80;;;;;;;11.48;100.00;99906.53;5003739;28;20488;-78
2022/10/22 06:46:01;;;;;;;16.37;10.10;;;;;;;11.42;100.00;99907.16;5005332;28;20534;-78
2022/10/22 06:48:28;;;;;;;14.70;9.67;;;;;;;11.63;100.00;99914.84;5007543;28;20883;-77
2022/10/22 06:50:55;;;;;;;11.57;9.93;;;;;;;11.72;100.00;99911.25;5009690;28;20509;-78
2022/10/22 06:53:22;;;;;;;12.27;10.20;;;;;;;11.93;100.00;99918.13;5019384;28;20459;-78
2022/10/22 06:55:50;;;;;;;12.13;10.83;;;;;;;12.15;100.00;99922.09;5001936;28;20484;-78
2022/10/22 06:58:16;;;;;;;12.60;10.80;;;;;;;12.39;100.00;99926.75;5016472;28;20826;-78
2022/10/22 07:00:43;;;;;;;15.47;10.57;;;;;;;12.79;98.90;99917.16;4991626;28;20480;-78
2022/10/22 07:03:12;;;;;;;10.90;9.80;;;;;;;12.94;95.21;99910.16;5008503;28;20471;-78
2022/10/22 07:05:39;;;;;;;14.93;9.70;;;;;;;13.03;93.98;99916.38;5012575;28;20866;-78
2022/10/22 07:08:06;;;;;;;10.67;9.30;;;;;;;12.89;93.72;99914.34;5003261;28;20515;-78
2022/10/22 07:10:32;;;;;;;10.53;9.17;;;;;;;13.04;92.14;99926.13;5000925;28;20506;-77
2022/10/22 07:13:00;;;;;;;8.87;8.00;;;;;;;13.24;91.16;99918.59;5000740;28;20476;-77
2022/10/22 07:15:27;;;;;;;17.60;8.53;;;;;;;13.58;90.55;99928.41;4999803;28;20495;-78
2022/10/22 07:17:53;;;;;;;11.80;8.57;;;;;;;14.13;89.06;99932.22;5002517;28;20524;-77
2022/10/22 07:20:20;;;;;;;11.23;8.20;;;;;;;14.63;88.19;99930.22;4997614;28;20482;-77
2022/10/22 07:22:47;;;;;;;11.07;7.87;;;;;;;15.79;82.65;99940.06;4998911;28;20519;-78
2022/10/22 07:25:13;;;;;;;12.50;11.30;;;;;;;16.44;77.09;99937.75;5000299;28;20534;-80
2022/10/22 07:27:40;;;;;;;8.87;7.80;;;;;;;17.43;73.04;99941.81;4995561;28;20918;-79
2022/10/22 07:30:09;;;;;;;11.13;8.67;;;;;;;17.62;69.69;99934.91;5001595;28;20490;-79
2022/10/22 07:32:36;;;;;;;10.33;9.20;;;;;;;18.17;67.09;99940.59;5011636;28;20480;-80
2022/10/22 07:35:03;;;;;;;7.00;5.27;;;;;;;19.87;61.60;99949.75;5005942;28;20482;-80
2022/10/22 07:37:30;;;;;;;9.83;5.00;;;;;;;20.19;59.31;99952.66;4998070;28;20486;-79
2022/10/22 07:39:56;;;;;;;7.40;4.63;;;;;;;20.64;58.22;99946.50;5002775;28;20916;-80
2022/10/22 07:42:23;;;;;;;7.97;4.43;;;;;;;19.35;60.61;99945.91;5001178;28;20494;-80
2022/10/22 07:44:49;;;;;;;6.80;3.43;;;;;;;18.69;64.43;99951.91;4999647;28;20493;-81
2022/10/22 07:47:17;;;;;;;7.03;4.57;;;;;;;18.23;67.65;99961.47;4998341;28;20527;-81
2022/10/22 07:49:44;;;;;;;10.03;6.87;;;;;;;19.03;64.91;99956.47;4998666;28;20520;-80
2022/10/22 07:52:11;;;;;;;4.50;4.10;;;;;;;19.66;63.27;99944.50;4997652;28;20552;-80
2022/10/22 07:54:38;;;;;;;7.60;4.07;;;;;;;19.94;61.52;99947.88;5001695;28;20466;-82
2022/10/22 07:57:04;;;;;;;7.63;3.90;;;;;;;19.92;62.93;99946.41;4998090;28;20490;-81
2022/10/22 07:59:31;;;;;;;4.37;3.13;;;;;;;21.09;61.95;99948.41;4999920;28;21034;-80
2022/10/22 08:01:58;;;;;;;6.60;3.93;;;;;;;23.36;52.80;99949.84;5002275;28;20495;-78
2022/10/22 08:04:26;;;;;;;5.33;2.57;;;;;;;24.16;51.46;99951.31;5003346;28;20500;-80
2022/10/22 08:06:53;;;;;;;3.07;2.27;;;;;;;24.44;50.41;99963.41;5017071;28;20573;-79
2022/10/22 08:09:19;;;;;;;9.13;2.90;;;;;;;23.78;51.58;99955.31;5011107;28;20528;-78
2022/10/22 08:11:46;;;;;;;4.07;2.60;;;;;;;24.72;49.20;99961.84;5006178;28;20591;-80
2022/10/22 08:14:13;;;;;;;4.67;2.60;;;;;;;23.67;52.22;99953.38;5019710;28;20920;-79
2022/10/22 08:16:39;;;;;;;9.67;2.80;;;;;;;22.71;55.54;99962.19;5018119;28;20489;-80
2022/10/22 08:19:06;;;;;;;6.63;2.53;;;;;;;22.31;56.52;99956.38;5001550;28;20463;-80
2022/10/22 08:21:34;;;;;;;6.57;2.60;;;;;;;23.51;53.42;99960.34;5000645;28;20496;-81
2022/10/22 08:24:01;;;;;;;4.13;2.40;;;;;;;23.78;52.66;99962.63;5001153;28;20462;-80
2022/10/22 08:26:27;;;;;;;4.53;2.93;;;;;;;23.38;53.04;99960.53;5005154;28;20511;-79
2022/10/22 08:28:54;;;;;;;7.30;2.63;;;;;;;23.14;54.14;99971.34;4999213;28;20487;-79
2022/10/22 08:31:20;;;;;;;6.30;2.90;;;;;;;23.18;53.75;99971.72;5000349;28;20621;-79
2022/10/22 08:33:47;;;;;;;5.70;3.43;;;;;;;23.81;52.25;99968.50;5003860;28;20443;-80
2022/10/22 08:36:14;;;;;;;6.27;2.70;;;;;;;23.15;53.12;99966.72;4990613;28;20523;-80
2022/10/22 08:38:42;;;;;;;5.60;2.87;;;;;;;22.55;55.46;99976.41;4985275;28;20506;-80
2022/10/22 08:41:12;;;;;;;6.27;2.63;;;;;;;23.35;53.38;99972.75;4984557;28;20484;-80
2022/10/22 08:43:52;;;;;;;7.73;3.20;;;;;;;23.71;52.31;99986.47;4984611;28;20440;-80
2022/10/22 08:46:39;;;;;;;5.00;2.87;;;;;;;23.73;52.39;99985.19;5005038;28;20484;-80
2022/10/22 08:49:10;;;;;;;5.60;2.97;;;;;;;23.70;51.65;99985.66;5004612;28;20496;-80
2022/10/22 08:51:39;;;;;;;4.70;2.60;;;;;;;23.90;51.34;99982.63;5003215;28;20541;-79
2022/10/22 08:54:19;;;;;;;3.73;2.30;;;;;;;24.84;49.78;99995.47;5012843;28;20491;-79
2022/10/22 08:56:52;;;;;;;6.77;2.90;;;;;;;24.95;48.84;99991.88;5016517;28;20484;-79
2022/10/22 08:59:23;;;;;;;4.00;2.73;;;;;;;24.78;48.82;99994.53;5015332;28;20509;-79
2022/10/22 09:01:51;;;;;;;6.73;3.20;;;;;;;23.74;50.90;99986.03;5023334;28;20552;-80
2022/10/22 09:04:24;;;;;;;10.13;3.20;;;;;;;24.29;49.74;99990.41;5023262;28;20900;-79
2022/10/22 09:06:51;;;;;;;5.90;3.10;;;;;;;24.49;49.42;99990.84;5022602;28;20851;-80
2022/10/22 09:09:20;;;;;;;3.40;2.70;;;;;;;24.43;49.60;99998.09;5009212;28;20498;-80
2022/10/22 09:11:48;;;;;;;5.13;3.13;;;;;;;25.03;48.33;99992.56;5004451;28;20506;-80
2022/10/22 09:14:17;;;;;;;8.37;2.80;;;;;;;24.45;49.30;99997.88;5008524;28;20458;-79
2022/10/22 09:17:05;;;;;;;10.30;3.40;;;;;;;25.08;47.87;99996.22;5017961;28;21117;-81
2022/10/22 09:19:36;;;;;;;6.23;3.30;;;;;;;24.24;49.26;99989.19;5009522;28;20575;-80
2022/10/22 09:22:13;;;;;;;7.53;3.30;;;;;;;22.28;55.27;99994.94;5002607;28;20518;-80
2022/10/22 09:24:44;;;;;;;5.83;3.20;;;;;;;22.13;56.41;99989.78;5003916;28;20510;-79
2022/10/22 09:27:13;;;;;;;5.83;3.00;;;;;;;23.46;52.02;99984.75;5003083;28;20520;-79
2022/10/22 09:29:40;;;;;;;6.43;3.40;;;;;;;24.15;51.03;99993.34;5002084;28;21196;-80
2022/10/22 09:32:06;;;;;;;11.40;3.17;;;;;;;23.92;50.87;99994.13;5003401;28;20537;-79
2022/10/22 09:34:33;;;;;;;4.47;3.03;;;;;;;23.99;50.99;100008.53;5002428;28;20462;-80
2022/10/22 09:37:03;;;;;;;6.27;3.27;;;;;;;24.12;50.64;100001.19;5005182;28;20545;-81
2022/10/22 09:39:33;;;;;;;5.60;4.10;;;;;;;24.97;47.93;100011.59;5003485;28;20512;-80
2022/10/22 09:42:01;;;;;;;6.50;3.60;;;;;;;25.03;47.86;100009.81;5002116;28;21082;-80
2022/10/22 09:44:28;;;;;;;7.70;3.60;;;;;;;25.82;45.55;100020.09;5009491;28;20529;-80
2022/10/22 09:46:55;;;;;;;7.67;3.70;;;;;;;24.84;48.84;100025.53;5022669;28;20478;-80
2022/10/22 09:49:22;;;;;;;6.47;3.33;;;;;;;24.77;47.93;100024.84;5021854;28;20527;-80
2022/10/22 09:51:54;;;;;;;5.93;3.90;;;;;;;23.62;51.44;100035.09;5022478;28;20490;-80
2022/10/22 09:54:23;;;;;;;8.60;3.47;;;;;;;24.00;51.23;100031.22;5011122;28;20483;-80
2022/10/22 09:56:56;;;;;;;5.00;3.60;;;;;;;23.56;52.15;100031.41;5001891;28;20510;-79
2022/10/22 09:59:30;;;;;;;9.47;3.20;;;;;;;25.19;47.42;100039.16;5017068;28;20554;-80
2022/10/22 10:02:01;;;;;;;9.70;3.70;;;;;;;23.78;51.07;100039.94;5022422;28;20565;-80
2022/10/22 10:04:28;;;;;;;8.80;3.10;;;;;;;23.26;52.08;100031.41;5022058;28;20453;-80
2022/10/22 10:06:56;;;;;;;6.33;3.47;;;;;;;23.01;52.78;100036.94;5023062;28;20465;-79
2022/10/22 10:09:24;;;;;;;6.40;3.10;;;;;;;21.90;56.89;100044.84;5022458;28;20509;-79
2022/10/22 10:11:56;;;;;;;9.77;3.20;;;;;;;21.75;58.58;100051.44;5021414;28;20456;-80
2022/10/22 10:14:31;;;;;;;8.70;3.20;;;;;;;20.69;60.19;100048.06;5007515;28;20542;-80
2022/10/22 10:17:04;;;;;;;11.30;3.00;;;;;;;19.84;63.24;100047.84;5002465;28;21117;-80
2022/10/22 10:19:49;;;;;;;6.50;3.30;;;;;;;19.38;64.60;100051.25;5002236;28;20497;-79
2022/10/22 10:22:25;;;;;;;10.50;4.00;;;;;;;19.40;65.21;100059.19;5002721;28;20479;-80
2022/10/22 10:25:25;;;;;;;5.93;2.80;;;;;;;19.19;66.34;100056.38;5002247;28;21026;-79
2022/10/22 10:27:57;;;;;;;6.10;2.60;;;;;;;19.16;66.86;100055.94;5001204;28;20545;-79
2022/10/22 10:30:25;;;;;;;5.30;2.53;;;;;;;19.10;66.13;100060.31;5022560;28;21009;-79
2022/10/22 10:33:02;;;;;;;4.90;3.13;;;;;;;20.12;63.52;100055.81;5022240;28;20465;-79
2022/10/22 10:35:34;;;;;;;7.47;2.53;;;;;;;22.03;55.77;100054.78;5021632;28;20481;-79
2022/10/22 10:38:15;;;;;;;8.83;2.70;;;;;;;20.32;60.76;100065.81;5022041;28;20486;-79
2022/10/22 10:40:45;;;;;;;6.80;2.37;;;;;;;20.31;61.55;100070.44;5020972;28;21004;-80
2022/10/22 10:43:15;;;;;;;6.67;2.17;;;;;;;20.81;60.33;100064.53;5017660;28;20465;-80
2022/10/22 10:45:53;;;;;;;9.67;2.67;;;;;;;20.79;60.30;100063.91;5021599;28;20643;-79
2022/10/22 10:48:33;;;;;;;8.47;2.53;;;;;;;20.95;58.58;100056.34;5021741;28;20458;-80
2022/10/22 10:51:14;;;;;;;7.47;2.40;;;;;;;21.15;57.39;100064.47;5021806;28;20493;-79
2022/10/22 10:53:51;;;;;;;10.30;2.40;;;;;;;22.71;53.48;100064.94;5021857;28;20438;-80
2022/10/22 10:56:30;;;;;;;8.83;2.50;;;;;;;20.51;58.15;100051.41;5020061;28;20488;-80
2022/10/22 10:59:02;;;;;;;5.73;2.70;;;;;;;19.88;59.60;100064.56;5021748;28;20453;-79
2022/10/22 11:01:37;;;;;;;5.50;2.83;;;;;;;20.18;59.72;100065.00;5021654;28;20528;-79
2022/10/22 11:04:29;;;;;;;5.10;2.40;;;;;;;20.51;59.04;100070.41;5020804;28;20482;-79
2022/10/22 11:06:59;;;;;;;4.93;2.20;;;;;;;20.17;59.31;100066.03;5021317;28;20478;-80
2022/10/22 11:09:28;;;;;;;3.90;2.20;;;;;;;19.43;61.76;100075.03;5021433;28;20486;-79
2022/10/22 11:11:58;;;;;;;4.30;2.00;;;;;;;18.73;64.75;100073.19;5015280;28;20979;-79
2022/10/22 11:14:29;;;;;;;6.67;2.73;;;;;;;18.72;65.67;100085.06;5002119;28;20489;-79
2022/10/22 11:17:00;;;;;;;5.63;2.80;;;;;;;18.27;67.25;100084.50;5001265;28;20553;-79
2022/10/22 11:19:30;;;;;;;8.83;3.20;;;;;;;18.11;66.88;100073.97;5001125;28;20428;-79
2022/10/22 11:21:59;;;;;;;5.50;2.33;;;;;;;17.83;67.65;100078.22;5001049;28;20506;-79
2022/10/22 11:24:29;;;;;;;6.57;2.30;;;;;;;17.90;68.22;100074.78;5000695;28;20515;-79
2022/10/22 11:26:58;;;;;;;6.30;2.43;;;;;;;18.02;68.91;100082.19;5007268;28;21023;-78
2022/10/22 11:29:33;;;;;;;5.20;2.30;;;;;;;17.95;69.19;100072.31;5021258;28;20549;-79
2022/10/22 11:32:02;;;;;;;5.20;2.40;;;;;;;17.84;70.81;100082.59;5020789;28;20482;-79